sensor_id;sensor_type;location;lat;lon;timestamp;P1;durP1;ratioP1;P2;durP2;ratioP2
33672;SDS011;20011;51.510;9.942;2023-04-15T00:01:47;6.20;;;4.30;;
33672;SDS011;20011;51.510;9.942;2023-04-15T00:04:14;6.43;;;5.25;;
33672;SDS011;20011;51.510;9.942;2023-04-15T00:06:41;5.90;;;4.63;;
33672;SDS011;20011;51.510;9.942;2023-04-15T00:09:08;8.43;;;5.03;;
33672;SDS011;20011;51.510;9.942;2023-04-15T00:11:35;6.63;;;5.43;;
33672;SDS011;20011;51.510;9.942;2023-04-15T00:14:02;7.45;;;4.97;;
33672;SDS011;20011;51.510;9.942;2023-04-15T00:16:29;6.68;;;4.95;;
33672;SDS011;20011;51.510;9.942;2023-04-15T00:18:56;9.38;;;5.07;;
33672;SDS011;20011;51.510;9.942;2023-04-15T00:21:24;10.75;;;5.75;;
33672;SDS011;20011;51.510;9.942;2023-04-15T00:23:52;9.27;;;6.13;;
33672;SDS011;20011;51.510;9.942;2023-04-15T00:26:19;9.23;;;6.00;;
33672;SDS011;20011;51.510;9.942;2023-04-15T00:28:48;6.88;;;5.50;;
33672;SDS011;20011;51.510;9.942;2023-04-15T00:31:15;7.28;;;5.47;;
33672;SDS011;20011;51.510;9.942;2023-04-15T00:33:42;7.78;;;5.85;;
33672;SDS011;20011;51.510;9.942;2023-04-15T00:36:09;8.43;;;6.22;;
33672;SDS011;20011;51.510;9.942;2023-04-15T00:38:36;8.23;;;5.55;;
33672;SDS011;20011;51.510;9.942;2023-04-15T00:41:04;7.47;;;5.60;;
33672;SDS011;20011;51.510;9.942;2023-04-15T00:43:31;9.48;;;6.43;;
33672;SDS011;20011;51.510;9.942;2023-04-15T00:45:58;7.50;;;6.05;;
33672;SDS011;20011;51.510;9.942;2023-04-15T00:48:26;11.07;;;6.43;;
33672;SDS011;20011;51.510;9.942;2023-04-15T00:50:53;10.25;;;6.07;;
33672;SDS011;20011;51.510;9.942;2023-04-15T00:53:20;13.98;;;6.50;;
33672;SDS011;20011;51.510;9.942;2023-04-15T00:55:47;10.50;;;6.28;;
33672;SDS011;20011;51.510;9.942;2023-04-15T00:58:14;7.80;;;5.55;;
33672;SDS011;20011;51.510;9.942;2023-04-15T01:00:42;11.38;;;6.05;;
33672;SDS011;20011;51.510;9.942;2023-04-15T01:03:09;11.45;;;6.45;;
33672;SDS011;20011;51.510;9.942;2023-04-15T01:05:37;7.85;;;6.38;;
33672;SDS011;20011;51.510;9.942;2023-04-15T01:08:04;11.73;;;7.72;;
33672;SDS011;20011;51.510;9.942;2023-04-15T01:10:32;10.40;;;6.53;;
33672;SDS011;20011;51.510;9.942;2023-04-15T01:12:59;9.90;;;6.70;;
33672;SDS011;20011;51.510;9.942;2023-04-15T01:15:26;10.25;;;6.32;;
33672;SDS011;20011;51.510;9.942;2023-04-15T01:17:53;7.93;;;6.20;;
33672;SDS011;20011;51.510;9.942;2023-04-15T01:20:20;10.88;;;7.68;;
33672;SDS011;20011;51.510;9.942;2023-04-15T01:22:47;12.30;;;7.35;;
33672;SDS011;20011;51.510;9.942;2023-04-15T01:25:18;10.18;;;6.63;;
33672;SDS011;20011;51.510;9.942;2023-04-15T01:27:52;14.30;;;6.32;;
33672;SDS011;20011;51.510;9.942;2023-04-15T01:30:19;13.43;;;6.93;;
33672;SDS011;20011;51.510;9.942;2023-04-15T01:32:47;13.00;;;6.97;;
33672;SDS011;20011;51.510;9.942;2023-04-15T01:35:14;12.27;;;7.22;;
33672;SDS011;20011;51.510;9.942;2023-04-15T01:37:40;11.02;;;6.68;;
33672;SDS011;20011;51.510;9.942;2023-04-15T01:40:08;10.23;;;7.20;;
33672;SDS011;20011;51.510;9.942;2023-04-15T01:42:35;10.63;;;7.10;;
33672;SDS011;20011;51.510;9.942;2023-04-15T01:45:03;9.32;;;6.20;;
33672;SDS011;20011;51.510;9.942;2023-04-15T01:47:30;9.68;;;6.75;;
33672;SDS011;20011;51.510;9.942;2023-04-15T01:49:57;9.57;;;6.72;;
33672;SDS011;20011;51.510;9.942;2023-04-15T01:52:24;8.85;;;6.43;;
33672;SDS011;20011;51.510;9.942;2023-04-15T01:54:51;14.15;;;7.72;;
33672;SDS011;20011;51.510;9.942;2023-04-15T01:57:18;8.27;;;6.15;;
33672;SDS011;20011;51.510;9.942;2023-04-15T01:59:45;9.80;;;7.22;;
33672;SDS011;20011;51.510;9.942;2023-04-15T02:02:13;7.72;;;6.22;;
33672;SDS011;20011;51.510;9.942;2023-04-15T02:04:40;7.88;;;6.15;;
33672;SDS011;20011;51.510;9.942;2023-04-15T02:07:07;8.77;;;6.10;;
33672;SDS011;20011;51.510;9.942;2023-04-15T02:09:34;9.65;;;6.22;;
33672;SDS011;20011;51.510;9.942;2023-04-15T02:12:01;8.98;;;6.32;;
33672;SDS011;20011;51.510;9.942;2023-04-15T02:14:29;8.50;;;6.25;;
33672;SDS011;20011;51.510;9.942;2023-04-15T02:16:56;7.90;;;5.82;;
33672;SDS011;20011;51.510;9.942;2023-04-15T02:19:23;11.55;;;6.45;;
33672;SDS011;20011;51.510;9.942;2023-04-15T02:21:50;9.93;;;6.50;;
33672;SDS011;20011;51.510;9.942;2023-04-15T02:24:17;9.27;;;6.50;;
33672;SDS011;20011;51.510;9.942;2023-04-15T02:26:44;9.38;;;6.85;;
33672;SDS011;20011;51.510;9.942;2023-04-15T02:29:11;8.55;;;6.88;;
33672;SDS011;20011;51.510;9.942;2023-04-15T02:31:39;8.95;;;7.20;;
33672;SDS011;20011;51.510;9.942;2023-04-15T02:34:07;8.68;;;6.57;;
33672;SDS011;20011;51.510;9.942;2023-04-15T02:36:34;8.15;;;5.85;;
33672;SDS011;20011;51.510;9.942;2023-04-15T02:39:03;8.60;;;6.20;;
33672;SDS011;20011;51.510;9.942;2023-04-15T02:41:30;11.00;;;7.38;;
33672;SDS011;20011;51.510;9.942;2023-04-15T02:43:57;10.00;;;5.80;;
33672;SDS011;20011;51.510;9.942;2023-04-15T02:46:24;9.30;;;6.25;;
33672;SDS011;20011;51.510;9.942;2023-04-15T02:48:52;9.07;;;6.40;;
33672;SDS011;20011;51.510;9.942;2023-04-15T02:51:21;8.82;;;6.20;;
33672;SDS011;20011;51.510;9.942;2023-04-15T02:53:48;7.30;;;5.90;;
33672;SDS011;20011;51.510;9.942;2023-04-15T02:56:16;9.07;;;6.95;;
33672;SDS011;20011;51.510;9.942;2023-04-15T02:58:45;8.15;;;5.68;;
33672;SDS011;20011;51.510;9.942;2023-04-15T03:01:12;9.95;;;6.57;;
33672;SDS011;20011;51.510;9.942;2023-04-15T03:03:40;9.60;;;6.93;;
33672;SDS011;20011;51.510;9.942;2023-04-15T03:06:07;10.30;;;6.65;;
33672;SDS011;20011;51.510;9.942;2023-04-15T03:08:34;13.43;;;7.78;;
33672;SDS011;20011;51.510;9.942;2023-04-15T03:11:02;15.45;;;7.20;;
33672;SDS011;20011;51.510;9.942;2023-04-15T03:13:31;10.02;;;7.78;;
33672;SDS011;20011;51.510;9.942;2023-04-15T03:16:04;10.27;;;7.45;;
33672;SDS011;20011;51.510;9.942;2023-04-15T03:18:32;10.52;;;7.55;;
33672;SDS011;20011;51.510;9.942;2023-04-15T03:21:01;10.63;;;7.75;;
33672;SDS011;20011;51.510;9.942;2023-04-15T03:26:02;9.75;;;7.32;;
33672;SDS011;20011;51.510;9.942;2023-04-15T03:28:31;10.48;;;6.95;;
33672;SDS011;20011;51.510;9.942;2023-04-15T03:30:59;13.75;;;8.30;;
33672;SDS011;20011;51.510;9.942;2023-04-15T03:33:26;12.77;;;8.07;;
33672;SDS011;20011;51.510;9.942;2023-04-15T03:35:53;10.52;;;7.38;;
33672;SDS011;20011;51.510;9.942;2023-04-15T03:38:20;12.98;;;7.55;;
33672;SDS011;20011;51.510;9.942;2023-04-15T03:40:47;14.18;;;8.48;;
33672;SDS011;20011;51.510;9.942;2023-04-15T03:43:14;15.45;;;8.30;;
33672;SDS011;20011;51.510;9.942;2023-04-15T03:45:41;9.93;;;7.75;;
33672;SDS011;20011;51.510;9.942;2023-04-15T03:48:08;11.60;;;9.10;;
33672;SDS011;20011;51.510;9.942;2023-04-15T03:50:42;12.68;;;8.50;;
33672;SDS011;20011;51.510;9.942;2023-04-15T03:53:09;13.23;;;8.23;;
33672;SDS011;20011;51.510;9.942;2023-04-15T03:55:36;12.98;;;7.85;;
33672;SDS011;20011;51.510;9.942;2023-04-15T03:58:03;12.40;;;9.25;;
33672;SDS011;20011;51.510;9.942;2023-04-15T04:00:30;12.85;;;8.73;;
33672;SDS011;20011;51.510;9.942;2023-04-15T04:02:57;13.57;;;10.00;;
33672;SDS011;20011;51.510;9.942;2023-04-15T04:05:24;12.48;;;9.10;;
33672;SDS011;20011;51.510;9.942;2023-04-15T04:07:51;15.60;;;9.00;;
33672;SDS011;20011;51.510;9.942;2023-04-15T04:10:18;13.60;;;9.15;;
33672;SDS011;20011;51.510;9.942;2023-04-15T04:12:45;13.23;;;8.90;;
33672;SDS011;20011;51.510;9.942;2023-04-15T04:15:12;14.63;;;9.52;;
33672;SDS011;20011;51.510;9.942;2023-04-15T04:17:39;15.77;;;10.98;;
33672;SDS011;20011;51.510;9.942;2023-04-15T04:20:06;12.70;;;9.32;;
33672;SDS011;20011;51.510;9.942;2023-04-15T04:22:39;14.13;;;10.18;;
33672;SDS011;20011;51.510;9.942;2023-04-15T04:25:06;13.65;;;10.30;;
33672;SDS011;20011;51.510;9.942;2023-04-15T04:27:34;16.33;;;11.27;;
33672;SDS011;20011;51.510;9.942;2023-04-15T04:30:01;15.15;;;10.25;;
33672;SDS011;20011;51.510;9.942;2023-04-15T04:32:28;14.65;;;10.88;;
33672;SDS011;20011;51.510;9.942;2023-04-15T04:34:55;16.00;;;11.57;;
33672;SDS011;20011;51.510;9.942;2023-04-15T04:37:22;14.88;;;10.85;;
33672;SDS011;20011;51.510;9.942;2023-04-15T04:39:49;14.73;;;11.23;;
33672;SDS011;20011;51.510;9.942;2023-04-15T04:42:16;16.50;;;10.77;;
33672;SDS011;20011;51.510;9.942;2023-04-15T04:44:43;16.52;;;12.18;;
33672;SDS011;20011;51.510;9.942;2023-04-15T04:47:10;18.15;;;11.55;;
33672;SDS011;20011;51.510;9.942;2023-04-15T04:49:37;19.83;;;12.48;;
33672;SDS011;20011;51.510;9.942;2023-04-15T04:52:04;16.52;;;12.02;;
33672;SDS011;20011;51.510;9.942;2023-04-15T04:54:31;17.55;;;13.38;;
33672;SDS011;20011;51.510;9.942;2023-04-15T04:56:58;16.13;;;12.07;;
33672;SDS011;20011;51.510;9.942;2023-04-15T04:59:26;19.05;;;13.63;;
33672;SDS011;20011;51.510;9.942;2023-04-15T05:01:53;17.85;;;13.45;;
33672;SDS011;20011;51.510;9.942;2023-04-15T05:04:20;20.67;;;13.25;;
33672;SDS011;20011;51.510;9.942;2023-04-15T05:06:47;23.30;;;15.18;;
33672;SDS011;20011;51.510;9.942;2023-04-15T05:09:14;18.35;;;13.63;;
33672;SDS011;20011;51.510;9.942;2023-04-15T05:11:41;18.58;;;12.80;;
33672;SDS011;20011;51.510;9.942;2023-04-15T05:14:08;19.63;;;13.93;;
33672;SDS011;20011;51.510;9.942;2023-04-15T05:16:35;22.35;;;13.25;;
33672;SDS011;20011;51.510;9.942;2023-04-15T05:19:02;21.70;;;12.40;;
33672;SDS011;20011;51.510;9.942;2023-04-15T05:21:29;17.67;;;12.90;;
33672;SDS011;20011;51.510;9.942;2023-04-15T05:23:56;19.85;;;13.18;;
33672;SDS011;20011;51.510;9.942;2023-04-15T05:26:23;16.02;;;11.95;;
33672;SDS011;20011;51.510;9.942;2023-04-15T05:28:50;19.25;;;12.85;;
33672;SDS011;20011;51.510;9.942;2023-04-15T05:31:17;18.65;;;12.35;;
33672;SDS011;20011;51.510;9.942;2023-04-15T05:33:44;16.77;;;11.93;;
33672;SDS011;20011;51.510;9.942;2023-04-15T05:36:12;16.58;;;12.18;;
33672;SDS011;20011;51.510;9.942;2023-04-15T05:38:39;19.80;;;12.65;;
33672;SDS011;20011;51.510;9.942;2023-04-15T05:41:06;18.75;;;13.00;;
33672;SDS011;20011;51.510;9.942;2023-04-15T05:43:33;22.35;;;13.48;;
33672;SDS011;20011;51.510;9.942;2023-04-15T05:46:00;17.63;;;12.55;;
33672;SDS011;20011;51.510;9.942;2023-04-15T05:48:26;22.70;;;13.63;;
33672;SDS011;20011;51.510;9.942;2023-04-15T05:50:53;15.20;;;10.93;;
33672;SDS011;20011;51.510;9.942;2023-04-15T05:53:20;23.13;;;14.50;;
33672;SDS011;20011;51.510;9.942;2023-04-15T05:55:47;20.52;;;14.18;;
33672;SDS011;20011;51.510;9.942;2023-04-15T05:58:14;21.30;;;13.18;;
33672;SDS011;20011;51.510;9.942;2023-04-15T06:00:41;18.15;;;12.48;;
33672;SDS011;20011;51.510;9.942;2023-04-15T06:03:09;20.77;;;13.55;;
33672;SDS011;20011;51.510;9.942;2023-04-15T06:05:37;20.13;;;13.77;;
33672;SDS011;20011;51.510;9.942;2023-04-15T06:08:04;20.98;;;13.40;;
33672;SDS011;20011;51.510;9.942;2023-04-15T06:10:31;24.98;;;13.57;;
33672;SDS011;20011;51.510;9.942;2023-04-15T06:13:02;18.27;;;13.35;;
33672;SDS011;20011;51.510;9.942;2023-04-15T06:15:29;20.25;;;12.75;;
33672;SDS011;20011;51.510;9.942;2023-04-15T06:17:57;19.63;;;13.25;;
33672;SDS011;20011;51.510;9.942;2023-04-15T06:20:24;21.17;;;13.82;;
33672;SDS011;20011;51.510;9.942;2023-04-15T06:22:51;16.63;;;12.02;;
33672;SDS011;20011;51.510;9.942;2023-04-15T06:25:18;17.70;;;12.43;;
33672;SDS011;20011;51.510;9.942;2023-04-15T06:27:45;19.70;;;12.50;;
33672;SDS011;20011;51.510;9.942;2023-04-15T06:30:12;18.90;;;12.05;;
33672;SDS011;20011;51.510;9.942;2023-04-15T06:32:39;19.00;;;12.73;;
33672;SDS011;20011;51.510;9.942;2023-04-15T06:35:08;20.42;;;13.00;;
33672;SDS011;20011;51.510;9.942;2023-04-15T06:37:35;21.98;;;12.95;;
33672;SDS011;20011;51.510;9.942;2023-04-15T06:40:02;20.75;;;13.25;;
33672;SDS011;20011;51.510;9.942;2023-04-15T06:42:30;18.92;;;11.73;;
33672;SDS011;20011;51.510;9.942;2023-04-15T06:44:57;17.55;;;11.40;;
33672;SDS011;20011;51.510;9.942;2023-04-15T06:47:24;19.38;;;11.13;;
33672;SDS011;20011;51.510;9.942;2023-04-15T06:49:51;17.58;;;12.05;;
33672;SDS011;20011;51.510;9.942;2023-04-15T06:52:19;15.38;;;10.75;;
33672;SDS011;20011;51.510;9.942;2023-04-15T06:54:48;17.20;;;11.95;;
33672;SDS011;20011;51.510;9.942;2023-04-15T06:57:15;19.88;;;11.68;;
33672;SDS011;20011;51.510;9.942;2023-04-15T06:59:41;16.52;;;10.90;;
33672;SDS011;20011;51.510;9.942;2023-04-15T07:02:08;16.77;;;11.75;;
33672;SDS011;20011;51.510;9.942;2023-04-15T07:04:38;16.60;;;11.70;;
33672;SDS011;20011;51.510;9.942;2023-04-15T07:07:05;15.40;;;10.63;;
33672;SDS011;20011;51.510;9.942;2023-04-15T07:09:33;19.13;;;10.93;;
33672;SDS011;20011;51.510;9.942;2023-04-15T07:12:00;21.13;;;10.20;;
33672;SDS011;20011;51.510;9.942;2023-04-15T07:14:28;14.50;;;9.82;;
33672;SDS011;20011;51.510;9.942;2023-04-15T07:16:55;18.02;;;10.25;;
33672;SDS011;20011;51.510;9.942;2023-04-15T07:19:22;14.60;;;9.40;;
33672;SDS011;20011;51.510;9.942;2023-04-15T07:21:49;18.63;;;9.63;;
33672;SDS011;20011;51.510;9.942;2023-04-15T07:24:16;13.10;;;8.68;;
33672;SDS011;20011;51.510;9.942;2023-04-15T07:26:45;13.82;;;9.32;;
33672;SDS011;20011;51.510;9.942;2023-04-15T07:29:12;11.65;;;8.60;;
33672;SDS011;20011;51.510;9.942;2023-04-15T07:31:39;13.80;;;9.15;;
33672;SDS011;20011;51.510;9.942;2023-04-15T07:34:07;14.43;;;9.75;;
33672;SDS011;20011;51.510;9.942;2023-04-15T07:36:34;13.45;;;9.55;;
33672;SDS011;20011;51.510;9.942;2023-04-15T07:39:02;17.50;;;11.10;;
33672;SDS011;20011;51.510;9.942;2023-04-15T07:41:29;18.08;;;10.13;;
33672;SDS011;20011;51.510;9.942;2023-04-15T07:43:56;14.68;;;10.10;;
33672;SDS011;20011;51.510;9.942;2023-04-15T07:46:24;14.30;;;9.18;;
33672;SDS011;20011;51.510;9.942;2023-04-15T07:48:52;16.65;;;10.05;;
33672;SDS011;20011;51.510;9.942;2023-04-15T07:51:19;13.07;;;9.68;;
33672;SDS011;20011;51.510;9.942;2023-04-15T07:53:46;15.57;;;10.32;;
33672;SDS011;20011;51.510;9.942;2023-04-15T07:56:14;15.65;;;9.90;;
33672;SDS011;20011;51.510;9.942;2023-04-15T07:58:41;16.33;;;10.65;;
33672;SDS011;20011;51.510;9.942;2023-04-15T08:01:09;18.52;;;10.63;;
33672;SDS011;20011;51.510;9.942;2023-04-15T08:03:36;16.50;;;9.65;;
33672;SDS011;20011;51.510;9.942;2023-04-15T08:06:03;16.15;;;10.50;;
33672;SDS011;20011;51.510;9.942;2023-04-15T08:08:30;14.65;;;10.75;;
33672;SDS011;20011;51.510;9.942;2023-04-15T08:10:57;14.85;;;10.45;;
33672;SDS011;20011;51.510;9.942;2023-04-15T08:13:24;16.35;;;10.73;;
33672;SDS011;20011;51.510;9.942;2023-04-15T08:16:15;21.63;;;11.48;;
33672;SDS011;20011;51.510;9.942;2023-04-15T08:18:39;14.90;;;10.77;;
33672;SDS011;20011;51.510;9.942;2023-04-15T08:21:07;16.75;;;9.30;;
33672;SDS011;20011;51.510;9.942;2023-04-15T08:23:34;15.15;;;10.45;;
33672;SDS011;20011;51.510;9.942;2023-04-15T08:26:01;12.70;;;9.05;;
33672;SDS011;20011;51.510;9.942;2023-04-15T08:28:28;14.07;;;8.98;;
33672;SDS011;20011;51.510;9.942;2023-04-15T08:30:56;12.88;;;9.05;;
33672;SDS011;20011;51.510;9.942;2023-04-15T08:33:23;13.05;;;8.50;;
33672;SDS011;20011;51.510;9.942;2023-04-15T08:35:49;11.27;;;7.05;;
33672;SDS011;20011;51.510;9.942;2023-04-15T08:38:16;12.40;;;7.15;;
33672;SDS011;20011;51.510;9.942;2023-04-15T08:40:44;13.15;;;8.00;;
33672;SDS011;20011;51.510;9.942;2023-04-15T08:43:12;13.75;;;8.85;;
33672;SDS011;20011;51.510;9.942;2023-04-15T08:45:45;13.95;;;9.05;;
33672;SDS011;20011;51.510;9.942;2023-04-15T08:48:14;12.95;;;8.75;;
33672;SDS011;20011;51.510;9.942;2023-04-15T08:50:42;13.02;;;9.25;;
33672;SDS011;20011;51.510;9.942;2023-04-15T08:53:09;11.00;;;8.38;;
33672;SDS011;20011;51.510;9.942;2023-04-15T08:55:39;13.30;;;7.75;;
33672;SDS011;20011;51.510;9.942;2023-04-15T08:58:10;13.50;;;7.75;;
33672;SDS011;20011;51.510;9.942;2023-04-15T09:00:38;12.00;;;7.63;;
33672;SDS011;20011;51.510;9.942;2023-04-15T09:03:06;12.95;;;8.68;;
33672;SDS011;20011;51.510;9.942;2023-04-15T09:05:34;10.40;;;7.70;;
33672;SDS011;20011;51.510;9.942;2023-04-15T09:08:03;9.95;;;6.78;;
33672;SDS011;20011;51.510;9.942;2023-04-15T09:10:31;10.75;;;7.10;;
33672;SDS011;20011;51.510;9.942;2023-04-15T09:12:59;10.27;;;7.15;;
33672;SDS011;20011;51.510;9.942;2023-04-15T09:15:27;8.05;;;6.38;;
33672;SDS011;20011;51.510;9.942;2023-04-15T09:17:55;11.45;;;6.70;;
33672;SDS011;20011;51.510;9.942;2023-04-15T09:20:22;8.07;;;6.05;;
33672;SDS011;20011;51.510;9.942;2023-04-15T09:22:49;8.75;;;5.70;;
33672;SDS011;20011;51.510;9.942;2023-04-15T09:27:52;7.03;;;5.03;;
33672;SDS011;20011;51.510;9.942;2023-04-15T09:30:22;6.93;;;5.15;;
33672;SDS011;20011;51.510;9.942;2023-04-15T09:32:53;6.65;;;5.10;;
33672;SDS011;20011;51.510;9.942;2023-04-15T09:35:22;12.88;;;4.90;;
33672;SDS011;20011;51.510;9.942;2023-04-15T09:37:51;6.18;;;4.40;;
33672;SDS011;20011;51.510;9.942;2023-04-15T09:40:34;6.13;;;4.43;;
33672;SDS011;20011;51.510;9.942;2023-04-15T09:43:06;6.00;;;4.38;;
33672;SDS011;20011;51.510;9.942;2023-04-15T09:45:35;6.45;;;4.25;;
33672;SDS011;20011;51.510;9.942;2023-04-15T09:48:15;5.32;;;4.13;;
33672;SDS011;20011;51.510;9.942;2023-04-15T09:50:47;5.85;;;4.03;;
33672;SDS011;20011;51.510;9.942;2023-04-15T09:53:24;5.97;;;4.40;;
33672;SDS011;20011;51.510;9.942;2023-04-15T09:55:52;5.45;;;4.20;;
33672;SDS011;20011;51.510;9.942;2023-04-15T09:58:24;5.13;;;3.63;;
33672;SDS011;20011;51.510;9.942;2023-04-15T10:00:56;6.10;;;4.18;;
33672;SDS011;20011;51.510;9.942;2023-04-15T10:03:26;5.47;;;4.43;;
33672;SDS011;20011;51.510;9.942;2023-04-15T10:05:55;6.50;;;4.22;;
33672;SDS011;20011;51.510;9.942;2023-04-15T10:08:25;6.45;;;4.40;;
33672;SDS011;20011;51.510;9.942;2023-04-15T10:10:53;4.78;;;3.72;;
33672;SDS011;20011;51.510;9.942;2023-04-15T10:13:25;6.38;;;4.30;;
33672;SDS011;20011;51.510;9.942;2023-04-15T10:15:55;5.00;;;3.92;;
33672;SDS011;20011;51.510;9.942;2023-04-15T10:18:26;5.63;;;3.95;;
33672;SDS011;20011;51.510;9.942;2023-04-15T10:20:56;6.10;;;4.07;;
33672;SDS011;20011;51.510;9.942;2023-04-15T10:23:26;7.63;;;4.25;;
33672;SDS011;20011;51.510;9.942;2023-04-15T10:25:54;5.07;;;3.85;;
33672;SDS011;20011;51.510;9.942;2023-04-15T10:28:22;5.45;;;4.40;;
33672;SDS011;20011;51.510;9.942;2023-04-15T10:30:50;4.53;;;3.95;;
33672;SDS011;20011;51.510;9.942;2023-04-15T10:33:20;6.15;;;4.50;;
33672;SDS011;20011;51.510;9.942;2023-04-15T10:35:49;4.90;;;4.40;;
33672;SDS011;20011;51.510;9.942;2023-04-15T10:38:34;5.40;;;4.33;;
33672;SDS011;20011;51.510;9.942;2023-04-15T10:43:56;4.32;;;3.85;;
33672;SDS011;20011;51.510;9.942;2023-04-15T10:46:37;5.40;;;3.58;;
33672;SDS011;20011;51.510;9.942;2023-04-15T10:51:42;4.80;;;3.60;;
33672;SDS011;20011;51.510;9.942;2023-04-15T10:54:29;3.90;;;3.50;;
33672;SDS011;20011;51.510;9.942;2023-04-15T10:59:35;3.60;;;3.10;;
33672;SDS011;20011;51.510;9.942;2023-04-15T11:02:06;4.50;;;3.63;;
33672;SDS011;20011;51.510;9.942;2023-04-15T11:04:53;3.58;;;3.10;;
33672;SDS011;20011;51.510;9.942;2023-04-15T11:07:32;5.05;;;3.88;;
33672;SDS011;20011;51.510;9.942;2023-04-15T11:12:39;4.70;;;3.50;;
33672;SDS011;20011;51.510;9.942;2023-04-15T11:17:56;4.25;;;3.47;;
33672;SDS011;20011;51.510;9.942;2023-04-15T11:20:25;5.33;;;3.67;;
33672;SDS011;20011;51.510;9.942;2023-04-15T11:22:53;6.13;;;4.20;;
33672;SDS011;20011;51.510;9.942;2023-04-15T11:25:40;3.45;;;3.15;;
33672;SDS011;20011;51.510;9.942;2023-04-15T11:28:09;6.18;;;4.13;;
33672;SDS011;20011;51.510;9.942;2023-04-15T11:30:38;4.53;;;3.85;;
33672;SDS011;20011;51.510;9.942;2023-04-15T11:33:06;3.63;;;2.78;;
33672;SDS011;20011;51.510;9.942;2023-04-15T11:35:35;4.50;;;3.58;;
33672;SDS011;20011;51.510;9.942;2023-04-15T11:38:03;4.75;;;3.80;;
33672;SDS011;20011;51.510;9.942;2023-04-15T11:40:31;3.08;;;2.78;;
33672;SDS011;20011;51.510;9.942;2023-04-15T11:45:32;5.10;;;3.70;;
33672;SDS011;20011;51.510;9.942;2023-04-15T11:48:04;3.97;;;3.20;;
33672;SDS011;20011;51.510;9.942;2023-04-15T11:50:32;5.40;;;3.67;;
33672;SDS011;20011;51.510;9.942;2023-04-15T11:53:03;4.07;;;3.20;;
33672;SDS011;20011;51.510;9.942;2023-04-15T11:58:28;6.35;;;4.07;;
33672;SDS011;20011;51.510;9.942;2023-04-15T12:00:58;5.00;;;3.65;;
33672;SDS011;20011;51.510;9.942;2023-04-15T12:03:30;4.40;;;3.63;;
33672;SDS011;20011;51.510;9.942;2023-04-15T12:06:14;4.85;;;3.42;;
33672;SDS011;20011;51.510;9.942;2023-04-15T12:14:10;6.68;;;4.05;;
33672;SDS011;20011;51.510;9.942;2023-04-15T12:21:59;7.47;;;4.93;;
33672;SDS011;20011;51.510;9.942;2023-04-15T12:24:31;7.90;;;4.68;;
33672;SDS011;20011;51.510;9.942;2023-04-15T12:29:29;12.15;;;5.63;;
33672;SDS011;20011;51.510;9.942;2023-04-15T12:32:14;8.50;;;5.55;;
33672;SDS011;20011;51.510;9.942;2023-04-15T12:34:50;9.00;;;6.15;;
33672;SDS011;20011;51.510;9.942;2023-04-15T12:37:20;10.38;;;6.68;;
33672;SDS011;20011;51.510;9.942;2023-04-15T12:39:48;11.73;;;6.45;;
33672;SDS011;20011;51.510;9.942;2023-04-15T12:42:16;10.60;;;6.50;;
33672;SDS011;20011;51.510;9.942;2023-04-15T12:44:43;8.13;;;5.88;;
33672;SDS011;20011;51.510;9.942;2023-04-15T12:47:11;9.45;;;6.07;;
33672;SDS011;20011;51.510;9.942;2023-04-15T12:49:42;11.32;;;6.32;;
33672;SDS011;20011;51.510;9.942;2023-04-15T12:52:09;11.13;;;6.72;;
33672;SDS011;20011;51.510;9.942;2023-04-15T12:54:36;9.98;;;6.70;;
33672;SDS011;20011;51.510;9.942;2023-04-15T12:57:03;11.30;;;7.35;;
33672;SDS011;20011;51.510;9.942;2023-04-15T12:59:33;15.40;;;7.10;;
33672;SDS011;20011;51.510;9.942;2023-04-15T13:02:01;13.55;;;7.57;;
33672;SDS011;20011;51.510;9.942;2023-04-15T13:04:29;14.25;;;7.43;;
33672;SDS011;20011;51.510;9.942;2023-04-15T13:06:58;12.93;;;7.35;;
33672;SDS011;20011;51.510;9.942;2023-04-15T13:09:28;11.35;;;7.45;;
33672;SDS011;20011;51.510;9.942;2023-04-15T13:11:55;10.05;;;7.35;;
33672;SDS011;20011;51.510;9.942;2023-04-15T13:14:23;11.90;;;7.90;;
33672;SDS011;20011;51.510;9.942;2023-04-15T13:16:50;14.80;;;8.50;;
33672;SDS011;20011;51.510;9.942;2023-04-15T13:19:21;13.35;;;8.52;;
33672;SDS011;20011;51.510;9.942;2023-04-15T13:21:49;13.90;;;8.38;;
33672;SDS011;20011;51.510;9.942;2023-04-15T13:24:17;14.27;;;9.02;;
33672;SDS011;20011;51.510;9.942;2023-04-15T13:26:44;17.15;;;9.23;;
33672;SDS011;20011;51.510;9.942;2023-04-15T13:29:15;11.15;;;7.75;;
33672;SDS011;20011;51.510;9.942;2023-04-15T13:31:44;17.23;;;9.90;;
33672;SDS011;20011;51.510;9.942;2023-04-15T13:34:15;19.92;;;9.85;;
33672;SDS011;20011;51.510;9.942;2023-04-15T13:36:42;17.02;;;9.82;;
33672;SDS011;20011;51.510;9.942;2023-04-15T13:39:09;16.40;;;10.07;;
33672;SDS011;20011;51.510;9.942;2023-04-15T13:41:36;16.35;;;10.25;;
33672;SDS011;20011;51.510;9.942;2023-04-15T13:44:03;18.42;;;10.57;;
33672;SDS011;20011;51.510;9.942;2023-04-15T13:46:33;20.75;;;9.35;;
33672;SDS011;20011;51.510;9.942;2023-04-15T13:49:01;16.55;;;9.05;;
33672;SDS011;20011;51.510;9.942;2023-04-15T13:51:28;21.00;;;11.20;;
33672;SDS011;20011;51.510;9.942;2023-04-15T13:53:55;16.55;;;10.43;;
33672;SDS011;20011;51.510;9.942;2023-04-15T13:56:23;19.75;;;9.45;;
33672;SDS011;20011;51.510;9.942;2023-04-15T13:58:51;12.95;;;8.60;;
33672;SDS011;20011;51.510;9.942;2023-04-15T14:01:20;16.77;;;9.55;;
33672;SDS011;20011;51.510;9.942;2023-04-15T14:03:47;15.20;;;10.05;;
33672;SDS011;20011;51.510;9.942;2023-04-15T14:06:15;18.05;;;9.55;;
33672;SDS011;20011;51.510;9.942;2023-04-15T14:08:42;16.90;;;9.65;;
33672;SDS011;20011;51.510;9.942;2023-04-15T14:11:09;16.65;;;10.45;;
33672;SDS011;20011;51.510;9.942;2023-04-15T14:13:36;19.17;;;10.23;;
33672;SDS011;20011;51.510;9.942;2023-04-15T14:16:03;17.35;;;10.15;;
33672;SDS011;20011;51.510;9.942;2023-04-15T14:18:33;16.92;;;9.43;;
33672;SDS011;20011;51.510;9.942;2023-04-15T14:21:06;19.15;;;10.20;;
33672;SDS011;20011;51.510;9.942;2023-04-15T14:23:34;19.05;;;9.77;;
33672;SDS011;20011;51.510;9.942;2023-04-15T14:26:03;18.77;;;10.65;;
33672;SDS011;20011;51.510;9.942;2023-04-15T14:28:31;19.15;;;9.68;;
33672;SDS011;20011;51.510;9.942;2023-04-15T14:30:58;16.60;;;9.48;;
33672;SDS011;20011;51.510;9.942;2023-04-15T14:33:26;17.27;;;10.63;;
33672;SDS011;20011;51.510;9.942;2023-04-15T14:35:58;20.27;;;11.77;;
33672;SDS011;20011;51.510;9.942;2023-04-15T14:38:26;18.90;;;10.93;;
33672;SDS011;20011;51.510;9.942;2023-04-15T14:40:53;19.50;;;10.57;;
33672;SDS011;20011;51.510;9.942;2023-04-15T14:43:20;19.92;;;10.95;;
33672;SDS011;20011;51.510;9.942;2023-04-15T14:45:47;18.98;;;9.90;;
33672;SDS011;20011;51.510;9.942;2023-04-15T14:48:15;23.40;;;12.27;;
33672;SDS011;20011;51.510;9.942;2023-04-15T14:50:42;19.08;;;11.13;;
33672;SDS011;20011;51.510;9.942;2023-04-15T14:53:09;20.70;;;10.45;;
33672;SDS011;20011;51.510;9.942;2023-04-15T14:55:37;24.77;;;12.05;;
33672;SDS011;20011;51.510;9.942;2023-04-15T14:58:05;22.27;;;11.75;;
33672;SDS011;20011;51.510;9.942;2023-04-15T15:00:33;27.97;;;13.20;;
33672;SDS011;20011;51.510;9.942;2023-04-15T15:03:01;18.73;;;11.25;;
33672;SDS011;20011;51.510;9.942;2023-04-15T15:05:29;20.92;;;11.35;;
33672;SDS011;20011;51.510;9.942;2023-04-15T15:07:56;20.85;;;10.98;;
33672;SDS011;20011;51.510;9.942;2023-04-15T15:10:24;16.42;;;10.75;;
33672;SDS011;20011;51.510;9.942;2023-04-15T15:13:11;17.88;;;10.68;;
33672;SDS011;20011;51.510;9.942;2023-04-15T15:15:39;19.83;;;10.93;;
33672;SDS011;20011;51.510;9.942;2023-04-15T15:18:06;21.67;;;10.90;;
33672;SDS011;20011;51.510;9.942;2023-04-15T15:20:33;23.80;;;11.65;;